Terminal Aerodrome Forecast
Issued by NWS

Home | Current Version | Previous Version | Text Only | Print | Product List | Glossary On
Versions: 1 2 3 4 5 6 7 8 9 10 11 12 13 14 15 16 17 18 19 20 21 22
000
FTUS43 KMKX 270712 AAA
TAFENW
TAF AMD
KENW 270712Z 2707/2806 VRB04KT 2SM -RA BR OVC003
     FM271200 28011KT 3SM -RA BR OVC005
     FM271400 27013KT P6SM -SHRA OVC015
     FM271700 25015KT P6SM OVC020
     FM280100 25009KT P6SM BKN040
     FM280400 24006KT P6SM SCT040=

USA.gov is the U.S. government's official web portal to all federal, state and local government web resources and services.